Tiempo atmosférico en la estación meteorológica de Palma, Puerto, Illes Balears (3 m.)



Fecha
DESCASC
Temp. máxima en grados centígrados (hora)
DESCASC
Temp. mínima en grados centígrados (hora)
DESCASC
Temp. media en grados centígrados
DESCASC
Racha de viento máxima en m/sg (hora)
DESCASC
Velocidad máxima media en intervalos de 10 minutos(hora)
DESCASC
Precipitaciones diarias en mm
DESCASC
Precipitaciones de 00:00 a 06:00 en mm
DESCASC
Precipitaciones de 06:00 a 12:00 en mm
DESCASC
Precipitaciones de 12:00 a 18:00 en mm
DESCASC
Precipitaciones de 18:00 a 24:00 en mm
DESCASC
05-04-2020 18.4 (15:30) 9.6 (05:10) 14 5.83 (16:20) 3.06 (16:10) 0 0 0 0 0
04-04-2020 18.4 (15:00) 8.9 (07:40) 13.6 6.39 (14:10) 3.61 (15:40) 0 0 0 0 0
03-04-2020 18.8 (16:10) 11.6 (23:59) 15.2 10.28 (11:20) 5 (09:10) 0 0 0 0 0
02-04-2020 19.2 (13:20) 13.4 (00:00) 16.3 8.33 (18:40) 5 (19:20) 4.6 0.1 0 4.4 0.1
01-04-2020 18.7 (15:50) 14.7 (00:00) 16.7 8.61 (00:50) 4.44 (04:30) 0.1 0.1 0 0 0
31-03-2020 17.1 (14:30) 13.8 (00:00) 15.5 11.39 (10:50) 6.39 (10:30) 2.6 0 0 2.6 0
30-03-2020 17.8 (13:50) 10.9 (00:00) 14.3 6.39 (13:30) 3.61 (13:20) 0.3 0 0.3 0 0
29-03-2020 20.6 (15:00) 9.2 (00:00) 14.9 8.06 (16:00) 3.89 (15:50) 0 0 0 0 0
28-03-2020 17.2 (14:10) 8.1 (00:00) 12.7 5.56 (15:40) 3.06 (15:40) 0.1 0 0.1 0 0
27-03-2020 16 (13:30) 7.5 (00:00) 11.8 7.5 (15:00) 3.89 (15:00) 0.1 0 0.1 0 0
26-03-2020 12.7 (13:00) 7.7 (00:00) 10.2 10.83 (15:40) 7.22 (15:40) 6.9 0 6.7 0.1 0.1
25-03-2020 14.9 (12:50) 8.7 (00:00) 11.8 14.72 (00:20) 6.39 (00:20) 0.6 0.6 0 0 0
24-03-2020 16.2 (14:10) 11.4 (00:00) 13.8 14.72 (16:50) 8.33 (16:00) 0 0 0 0 0
23-03-2020 20.9 (14:30) 12.8 (00:00) 16.8 9.72 (17:30) 5.28 (17:30) 0 0 0 0 0
22-03-2020 17.9 (15:10) 12.8 (12:00) 15.3 6.39 (11:30) 3.33 (11:50) 21.7 0 21.7 0 0
21-03-2020 20.3 (12:20) 12.8 (00:00) 16.5 8.06 (10:10) 4.17 (10:10) 0.4 0 0 0 0.4
20-03-2020 19.9 (14:50) 11.9 (00:00) 15.9 9.44 (20:50) 4.72 (15:50) 0 0 0 0 0
19-03-2020 19.7 (12:50) 12.5 (00:00) 16.1 6.11 (19:10) 3.89 (19:10) 0 0 0 0 0
18-03-2020 19 (13:30) 13.8 (00:00) 16.4 9.17 (10:10) 5 (11:00) 0 0 0 0 0
17-03-2020 18.5 (13:40) 15.3 (00:00) 16.9 11.67 (13:20) 6.67 (13:20) 0.2 0.2 0 0 0
16-03-2020 19.3 (14:40) 12.8 (00:00) 16 7.78 (10:50) 4.72 (10:40) 0.6 0 0.6 0 0
15-03-2020 18.1 (14:40) 10.2 (00:00) 14.2 6.39 (12:50) 3.33 (13:50) 0 0 0 0 0
14-03-2020 19 (13:00) 11.5 (00:00) 15.3 6.39 (14:10) 3.61 (15:00) 1.1 1.1 0 0 0
13-03-2020 20.5 (15:10) 12.6 (02:20) 16.6 11.94 (11:50) 7.22 (13:50) 0 0 0 0 0
12-03-2020 21.9 (14:20) 10 (00:00) 15.9 4.72 (13:40) 2.5 (15:30) 0 0 0 0 0
11-03-2020 18.6 (14:00) 10 (00:00) 14.3 6.67 (16:50) 3.61 (16:50) 0 0 0 0 0
10-03-2020 17 (15:00) 9.6 (00:00) 13.3 9.72 (14:00) 5.28 (13:30) 0 0 0 0 0

Gráficas

Temp. máximas Temp. mínimas Temp. medias Precipitaciones Rachas de viento máximas Velocidades máximas media en intervalos de 10 minutos

Datos horarios

Fecha y hora oficial Temperatura (ºC) Velocidad del viento (km/h) Dirección del viento Racha (km/h) Dirección de racha Precipitación (mm) Presión (hPa) Tendencia (hPa) Humedad (%)
2020-04-08 23:00:00 14.8 3 Norte 8 Nordeste 0 -- -- 70
2020-04-08 22:00:00 15.8 0 Calma 14 Sur 0 -- -- 70
2020-04-08 21:00:00 16.4 3 Sudoeste 14 Oeste 0 -- -- 67
2020-04-08 20:00:00 16.7 3 Oeste 18 Sudoeste 0 -- -- 67
2020-04-08 19:00:00 17.6 6 Oeste 18 Sudoeste 0 -- -- 63
2020-04-08 18:00:00 17.6 9 Sudoeste 20 Sudoeste 0 -- -- 66
2020-04-08 17:00:00 17.8 12 Sudoeste 22 Sudoeste 0 -- -- 69
2020-04-08 16:00:00 19.1 7 Sudoeste 19 Sur 0 -- -- 62
2020-04-08 15:00:00 18.9 8 Sudoeste 17 Sudoeste 0 -- -- 57
2020-04-08 14:00:00 19.1 9 Sudoeste 18 Sudoeste 0 -- -- 50
2020-04-08 13:00:00 19.9 4 Sur 8 Sur 0 -- -- 41
2020-04-08 12:00:00 18.8 2 Nordeste 8 Este 0 -- -- 39
2020-04-08 11:00:00 17.4 4 Nordeste 10 Nordeste 0 -- -- 47
2020-04-08 10:00:00 15.9 7 Norte 12 Norte 0 -- -- 53
2020-04-08 09:00:00 14.5 4 Norte 9 Noroeste 0 -- -- 51
2020-04-08 08:00:00 12.6 3 Nordeste 5 Norte 0 -- -- 61
2020-04-08 07:00:00 12.5 3 Nordeste 5 Nordeste 0 -- -- 62
2020-04-08 06:00:00 13.3 0 Calma 7 Norte 0 -- -- 59
2020-04-08 05:00:00 13.7 2 Norte 7 Noroeste 0 -- -- 58
2020-04-08 04:00:00 13.4 4 Noroeste 9 Norte 0 -- -- 62
2020-04-08 03:00:00 13.2 3 Norte 7 Norte 0 -- -- 71
2020-04-08 02:00:00 13.6 0 Calma 7 Noroeste 0 -- -- 69
2020-04-08 01:00:00 14.6 4 Noroeste 9 Noroeste 0 -- -- 60
2020-04-08 00:00:00 15.2 4 Noroeste 8 Noroeste 0 -- -- 64
2020-04-07 23:00:00 15.8 3 Sudoeste 9 Sur 0 -- -- 60
2020-04-07 22:00:00 16.1 3 Sur 10 Sur 0 -- -- 58
2020-04-07 21:00:00 16 6 Sur 11 Sur 0 -- -- 65
2020-04-07 20:00:00 16.1 8 Sur 18 Sudoeste 0 -- -- 65
2020-04-07 19:00:00 16.5 11 Sur 25 Sudoeste 0 -- -- 67
2020-04-07 18:00:00 17.1 10 Sur 22 Sur 0 -- -- 63
2020-04-07 17:00:00 17.6 12 Sur 21 Sur 0 -- -- 62
2020-04-07 16:00:00 18.5 9 Sudoeste 22 Sudoeste 0 -- -- 56
2020-04-07 15:00:00 18.3 10 Sur 21 Sudoeste 0 -- -- 60
2020-04-07 14:00:00 18.6 11 Sur 21 Sudoeste 0 -- -- 57
2020-04-07 13:00:00 19.6 3 Sudeste 11 Este 0 -- -- 47
2020-04-07 12:00:00 18.9 6 Este 13 Sudeste 0 -- -- 41
2020-04-07 11:00:00 16.6 5 Nordeste 10 Nordeste 0 -- -- 49
2020-04-07 10:00:00 14.8 4 Norte 12 Nordeste 0 -- -- 46
2020-04-07 09:00:00 13.3 4 Nordeste 8 Este 0 -- -- 53
2020-04-07 08:00:00 11.5 3 Nordeste 6 Nordeste 0 -- -- 58
2020-04-07 07:00:00 12.1 2 Nordeste 11 Noroeste 0 -- -- 55
2020-04-07 06:00:00 12.6 4 Norte 9 Norte 0 -- -- 47
2020-04-07 05:00:00 12.3 4 Norte 6 Norte 0 -- -- 61
2020-04-07 04:00:00 13.2 4 Norte 7 Norte 0 -- -- 54
2020-04-07 03:00:00 13 4 Norte 7 Nordeste 0 -- -- 60
2020-04-07 02:00:00 13.2 2 Norte 9 Norte 0 -- -- 65
2020-04-07 01:00:00 13.2 3 Norte 8 Norte 0 -- -- 66
2020-04-07 00:00:00 13.4 3 Norte 6 Norte 0 -- -- 71
2020-04-06 23:00:00 14.2 2 Norte 7 Noroeste 0 -- -- 69
2020-04-06 22:00:00 15.1 0 Calma 7 Sudoeste 0 -- -- 64
2020-04-06 21:00:00 15.9 5 Sur 13 Sudoeste 0 -- -- 60
2020-04-06 20:00:00 16.4 6 Sur 12 Sudoeste 0 -- -- 57
2020-04-06 19:00:00 16.7 7 Sudoeste 15 Sur 0 -- -- 48
2020-04-06 18:00:00 17.5 6 Sudoeste 17 Sur 0 -- -- 47
2020-04-06 17:00:00 18.4 7 Sur 20 Sudoeste 0 -- -- 46
2020-04-06 16:00:00 18.8 6 Sudoeste 15 Sudoeste 0 -- -- 48
2020-04-06 15:00:00 18.2 8 Sur 18 Sudoeste 0 -- -- 58
2020-04-06 14:00:00 18.2 9 Sur 21 Sur 0 -- -- 57
2020-04-06 13:00:00 18.3 7 Sur 14 Sudoeste 0 -- -- 59
2020-04-06 12:00:00 18.5 4 Sudeste 8 Sudeste 0 -- -- 54
2020-04-06 11:00:00 16.7 3 Nordeste 12 Nordeste 0 -- -- 60
2020-04-06 10:00:00 15.6 5 Nordeste 13 Nordeste 0 -- -- 65
2020-04-06 09:00:00 13.6 8 Nordeste 12 Norte 0 -- -- 65
2020-04-06 08:00:00 10.8 5 Nordeste 8 Nordeste 0 -- -- 82
2020-04-06 07:00:00 11.5 3 Norte 10 Noroeste 0 -- -- 79
2020-04-06 06:00:00 12.6 6 Noroeste 12 Noroeste 0 -- -- 70
2020-04-06 05:00:00 12.6 6 Noroeste 11 Noroeste 0 -- -- 68
2020-04-06 04:00:00 12.5 5 Norte 8 Norte 0 -- -- 70
2020-04-06 03:00:00 13 3 Norte 8 Noroeste 0 -- -- 68
2020-04-06 02:00:00 13.5 3 Norte 9 Norte 0 -- -- 66
2020-04-06 01:00:00 12.7 3 Norte 6 Norte 0 -- -- 71
2020-04-06 00:00:00 12.1 0 Calma 5 Norte 0 -- -- 74
2020-04-05 23:00:00 12.9 0 Calma 6 Noroeste 0 -- -- 68
2020-04-05 22:00:00 13.7 0 Calma 4 Sudoeste 0 -- -- 69
2020-04-05 21:00:00 14.7 0 Calma 9 Sudoeste 0 -- -- 65
2020-04-05 20:00:00 15.5 6 Sudoeste 15 Sur 0 -- -- 64
2020-04-05 19:00:00 16 8 Sur 17 Sur 0 -- -- 61
2020-04-05 18:00:00 16.1 8 Sudoeste 17 Sur 0 -- -- 64
2020-04-05 17:00:00 16.6 7 Sudoeste 21 Sudoeste 0 -- -- 64
2020-04-05 16:00:00 17.6 10 Sur 20 Sur 0 -- -- 60
2020-04-05 15:00:00 17.2 9 Sur 19 Sudoeste 0 -- -- 65
2020-04-05 14:00:00 16.8 10 Sur 17 Sudoeste 0 -- -- 63
2020-04-05 13:00:00 17.2 9 Sur 15 Sur 0 -- -- 51
2020-04-05 12:00:00 17.2 4 Sur 9 Sur 0 -- -- 47
2020-04-05 11:00:00 15.2 3 Nordeste 10 Este 0 -- -- 62
2020-04-05 10:00:00 14.8 4 Sudeste 7 Este 0 -- -- 60
2020-04-05 09:00:00 12.1 0 Calma 5 Nordeste 0 -- -- 69
2020-04-05 08:00:00 10.6 3 Norte 11 Norte 0 -- -- 74
2020-04-05 07:00:00 10.6 5 Norte 10 Norte 0 -- -- 78
2020-04-05 06:00:00 9.9 6 Norte 8 Nordeste 0 -- -- 83
2020-04-05 05:00:00 9.8 4 Nordeste 7 Norte 0 -- -- 84
2020-04-05 04:00:00 10.6 2 Norte 7 Norte 0 -- -- 82
2020-04-05 03:00:00 11.1 4 Norte 7 Nordeste 0 -- -- 79
2020-04-05 02:00:00 11.6 2 Norte 6 Norte 0 -- -- 79
2020-04-05 01:00:00 12.4 2 Norte 8 Norte 0 -- -- 75
2020-04-05 00:00:00 12.6 4 Norte 8 Norte 0 -- -- 76
2020-04-04 23:00:00 13.3 4 Noroeste 7 Noroeste 0 -- -- 73
2020-04-04 22:00:00 14 2 Norte 7 Oeste 0 -- -- 74
2020-04-04 21:00:00 15.4 4 Sudoeste 14 Sur 0 -- -- 66
2020-04-04 20:00:00 15.7 8 Sur 18 Sur 0 -- -- 63
2020-04-04 19:00:00 16.3 10 Sur 21 Sudoeste 0 -- -- 63
2020-04-04 18:00:00 17.1 10 Sur 21 Sudoeste 0 -- -- 59
2020-04-04 17:00:00 17.6 10 Sur 22 Sur 0 -- -- 51
2020-04-04 16:00:00 17.8 12 Sur 23 Sur 0 -- -- 54
2020-04-04 15:00:00 18.1 10 Sur 23 Sur 0 -- -- 58
2020-04-04 14:00:00 18.2 9 Sudoeste 21 Sudoeste 0 -- -- 64
2020-04-04 13:00:00 17.2 10 Sudoeste 18 Sudoeste 0 -- -- 66
2020-04-04 12:00:00 16.4 6 Sur 10 Sudoeste 0 -- -- 68
2020-04-04 11:00:00 15.4 4 Sudeste 8 Sur 0 -- -- 68
2020-04-04 10:00:00 14.5 4 Sudeste 8 Sudeste 0 -- -- 71
2020-04-04 09:00:00 13 0 Calma 4 Norte 0 -- -- 72
2020-04-04 08:00:00 9.2 0 Calma 6 Norte 0 -- -- 88
2020-04-04 07:00:00 9.2 0 Calma 6 Noroeste 0 -- -- 82
2020-04-04 06:00:00 9.7 4 Norte 7 Norte 0 -- -- 76
2020-04-04 05:00:00 9.4 2 Norte 5 Norte 0 -- -- 77
2020-04-04 04:00:00 9.2 0 Calma 4 Norte 0 -- -- 76
2020-04-04 03:00:00 9.7 0 Calma 5 Noroeste 0 -- -- 72
2020-04-04 02:00:00 10.1 0 Calma 4 Norte 0 -- -- 71
2020-04-04 01:00:00 10.8 3 Norte 8 Noroeste 0 -- -- 68
2020-04-04 00:00:00 11.6 0 Calma 6 Norte 0 -- -- 65
2020-04-03 23:00:00 12.6 3 Norte 6 Norte 0 -- -- 61
2020-04-03 22:00:00 13.1 3 Norte 13 Este 0 -- -- 68
2020-04-03 21:00:00 14.3 5 Nordeste 10 Nordeste 0 -- -- 58
2020-04-03 20:00:00 15.6 4 Norte 18 Este 0 -- -- 55
2020-04-03 19:00:00 16.5 9 Este 19 Nordeste 0 -- -- 44
2020-04-03 18:00:00 17.6 10 Este 24 Nordeste 0 -- -- 43
2020-04-03 17:00:00 17.8 12 Este 25 Nordeste 0 -- -- 47
2020-04-03 16:00:00 18.7 11 Este 27 Nordeste 0 -- -- 52
2020-04-03 15:00:00 16.7 12 Nordeste 32 Este 0 -- -- 51
2020-04-03 14:00:00 16.8 11 Norte 29 Norte 0 -- -- 51
2020-04-03 13:00:00 16.9 13 Norte 32 Norte 0 -- -- 51
2020-04-03 12:00:00 16.5 15 Norte 37 Nordeste 0 -- -- 50
2020-04-03 11:00:00 15.7 13 Norte 33 Norte 0 -- -- 54
2020-04-03 10:00:00 15.6 13 Norte 33 Nordeste 0 -- -- 55
2020-04-03 09:00:00 15.2 18 Nordeste 28 Nordeste 0 -- -- 52
2020-04-03 08:00:00 14.2 13 Nordeste 25 Norte 0 -- -- 57
2020-04-03 07:00:00 14.2 15 Norte 27 Norte 0 -- -- 58
2020-04-03 06:00:00 13.9 14 Norte 30 Nordeste 0 -- -- 59
2020-04-03 05:00:00 14 14 Nordeste 26 Nordeste 0 -- -- 61
2020-04-03 04:00:00 13.4 12 Norte 28 Nordeste 0 -- -- 74
2020-04-03 03:00:00 13.4 10 Norte 31 Norte 0 -- -- 71
2020-04-03 02:00:00 13 8 Norte 26 Noroeste 0 -- -- 73
2020-04-03 01:00:00 13.4 6 Nordeste 14 Nordeste 0 -- -- 81
2020-04-03 00:00:00 13.4 7 Norte 21 Nordeste 0 -- -- 85
2020-04-02 23:00:00 13.5 12 Nordeste 21 Nordeste 0 -- -- 86
2020-04-02 22:00:00 13.6 0 Calma 12 Nordeste 0 -- -- 82
2020-04-02 21:00:00 14 6 Nordeste 14 Norte 0 -- -- 84
2020-04-02 20:00:00 14.4 10 Nordeste 29 Nordeste 0.1 -- -- 80
2020-04-02 19:00:00 14.8 14 Nordeste 30 Este 0 -- -- 77
2020-04-02 18:00:00 16.7 11 Este 22 Este 0 -- -- 64
2020-04-02 17:00:00 16 3 Noroeste 13 Noroeste 0.1 -- -- 75
2020-04-02 16:00:00 15.3 6 Noroeste 14 Noroeste 0.1 -- -- 81
2020-04-02 15:00:00 15.1 4 Este 18 Este 4.2 -- -- 78
2020-04-02 14:00:00 17.6 8 Sur 14 Sur 0 -- -- 69
2020-04-02 13:00:00 18.5 5 Sudeste 11 Este 0 -- -- 68
2020-04-02 12:00:00 17.3 4 Sudeste 14 Sudeste 0 -- -- 75
2020-04-02 11:00:00 16.8 5 Sudeste 12 Sur 0 -- -- 73
2020-04-02 10:00:00 15.7 7 Nordeste 11 Nordeste 0 -- -- 81
2020-04-02 09:00:00 13.7 2 Norte 15 Noroeste 0 -- -- 90
2020-04-02 08:00:00 13.7 3 Norte 7 Noroeste 0 -- -- 91
2020-04-02 07:00:00 14.5 3 Sudoeste 10 Sudoeste 0 -- -- 88
2020-04-02 06:00:00 14.5 2 Sudoeste 9 Noroeste 0.1 -- -- 90
2020-04-02 05:00:00 14 0 Calma 2 Norte 0 -- -- 89
2020-04-02 04:00:00 14 0 Calma 8 Oeste 0 -- -- 90
2020-04-02 03:00:00 15 4 Sudoeste 19 Sudoeste 0 -- -- 89
2020-04-02 02:00:00 15.5 12 Sur 18 Sudoeste 0 -- -- 88
2020-04-02 01:00:00 15.4 5 Sur 13 Sudoeste 0 -- -- 89
2020-04-02 00:00:00 15.7 8 Sur 17 Sur 0 -- -- 87
2020-04-01 23:00:00 15.7 6 Sudoeste 18 Sudoeste 0 -- -- 89
2020-04-01 22:00:00 15.9 10 Sur 19 Sudoeste 0 -- -- 87
2020-04-01 21:00:00 15.9 8 Sur 19 Sur 0 -- -- 86
2020-04-01 20:00:00 15.8 11 Sur 22 Sur 0 -- -- 84
2020-04-01 19:00:00 16.1 10 Sur 21 Sudoeste 0 -- -- 81
2020-04-01 18:00:00 16.6 13 Sur 23 Sudoeste 0 -- -- 79
2020-04-01 17:00:00 17.4 11 Sur 24 Sur 0 -- -- 76
2020-04-01 16:00:00 18.1 12 Sudoeste 28 Sudoeste 0 -- -- 68
2020-04-01 15:00:00 17.7 10 Sur 22 Sur 0 -- -- 78
2020-04-01 14:00:00 18 11 Sur 23 Sur 0 -- -- 74
2020-04-01 13:00:00 17.8 12 Sur 26 Sur 0 -- -- 79
2020-04-01 12:00:00 17.1 8 Sur 17 Sur 0 -- -- 84
2020-04-01 11:00:00 17.6 5 Este 15 Nordeste 0 -- -- 77
2020-04-01 10:00:00 16.4 8 Nordeste 15 Nordeste 0 -- -- 78
2020-04-01 09:00:00 15.2 8 Nordeste 19 Nordeste 0 -- -- 82
2020-04-01 08:00:00 14.8 8 Nordeste 20 Nordeste 0 -- -- 82
2020-04-01 07:00:00 14.8 12 Nordeste 28 Nordeste 0 -- -- 81
2020-04-01 06:00:00 14.8 10 Nordeste 23 Nordeste 0 -- -- 80
2020-04-01 05:00:00 14.9 12 Nordeste 27 Nordeste 0 -- -- 80
2020-04-01 04:00:00 15.2 12 Nordeste 24 Nordeste 0 -- -- 82
2020-04-01 03:00:00 15.2 11 Nordeste 24 Nordeste 0 -- -- 83
2020-04-01 02:00:00 15.2 12 Nordeste 27 Nordeste 0.1 -- -- 83
2020-04-01 01:00:00 15.1 13 Nordeste 31 Nordeste 0 -- -- 83
2020-04-01 00:00:00 15.1 14 Nordeste 26 Nordeste 0 -- -- 83
2020-03-31 23:00:00 15.2 11 Nordeste 22 Nordeste 0 -- -- 82
2020-03-31 22:00:00 15.2 12 Nordeste 33 Nordeste 0 -- -- 84
2020-03-31 21:00:00 15 13 Nordeste 26 Nordeste 0 -- -- 86
2020-03-31 20:00:00 15.5 13 Nordeste 29 Este 0 -- -- 85
2020-03-31 19:00:00 15.9 15 Nordeste 31 Nordeste 0 -- -- 82
2020-03-31 18:00:00 16 17 Nordeste 29 Nordeste 0 -- -- 82
2020-03-31 17:00:00 16 12 Nordeste 26 Nordeste 0 -- -- 82
2020-03-31 16:00:00 15.6 14 Nordeste 28 Nordeste 2.2 -- -- 88
2020-03-31 15:00:00 16.3 17 Nordeste 29 Nordeste 0.4 -- -- 78
2020-03-31 14:00:00 16.9 14 Nordeste 39 Nordeste 0 -- -- 70
2020-03-31 13:00:00 16.5 21 Nordeste 36 Nordeste 0 -- -- 72
2020-03-31 12:00:00 16.2 20 Nordeste 36 Nordeste 0 -- -- 72
2020-03-31 11:00:00 16.1 23 Nordeste 41 Nordeste 0 -- -- 73
2020-03-31 10:00:00 15.5 14 Nordeste 33 Nordeste 0 -- -- 75
2020-03-31 09:00:00 14.6 17 Nordeste 34 Nordeste 0 -- -- 78
2020-03-31 08:00:00 14.2 16 Nordeste 30 Este 0 -- -- 83
2020-03-31 07:00:00 13.9 14 Nordeste 30 Nordeste 0 -- -- 85
2020-03-31 06:00:00 14.2 15 Nordeste 30 Nordeste 0 -- -- 79
2020-03-31 05:00:00 14.3 12 Nordeste 21 Norte 0 -- -- 79
2020-03-31 04:00:00 14.1 12 Nordeste 22 Nordeste 0 -- -- 82
2020-03-31 03:00:00 14.2 8 Nordeste 15 Nordeste 0 -- -- 82
2020-03-31 02:00:00 14.1 6 Nordeste 14 Nordeste 0 -- -- 80
2020-03-31 01:00:00 14.5 6 Nordeste 16 Nordeste 0 -- -- 79
2020-03-31 00:00:00 14.2 4 Nordeste 10 Nordeste 0 -- -- 82
2020-03-30 23:00:00 14.4 5 Este 11 Nordeste 0 -- -- 84
2020-03-30 22:00:00 14.8 3 Sudeste 8 Sudeste 0 -- -- 84
2020-03-30 21:00:00 14.8 5 Sudoeste 9 Sur 0 -- -- 80
2020-03-30 20:00:00 15.1 3 Sudoeste 13 Sudoeste 0 -- -- 76
2020-03-30 19:00:00 15.5 9 Sudoeste 17 Sur 0 -- -- 75
2020-03-30 18:00:00 16 9 Sur 19 Sur 0 -- -- 71
2020-03-30 17:00:00 16.8 10 Sur 22 Sudoeste 0 -- -- 67
2020-03-30 16:00:00 16.9 13 Sur 19 Sur 0 -- -- 69
2020-03-30 15:00:00 17.3 8 Sur 18 Sudoeste 0 -- -- 71
2020-03-30 14:00:00 17 10 Sur 23 Sur 0 -- -- 74
2020-03-30 13:00:00 17.1 11 Sur 22 Sudoeste 0 -- -- 75
2020-03-30 12:00:00 16 2 Sudoeste 10 Sudoeste 0 -- -- 77
2020-03-30 11:00:00 14.7 3 Norte 10 Nordeste 0.1 -- -- 79
2020-03-30 10:00:00 13.5 5 Norte 8 Norte 0 -- -- 83
2020-03-30 09:00:00 12.6 3 Norte 10 Noroeste 0.2 -- -- 86
2020-03-30 08:00:00 11.3 5 Norte 8 Norte 0 -- -- 89
2020-03-30 07:00:00 11.3 3 Nordeste 7 Nordeste 0 -- -- 89
2020-03-30 06:00:00 11.2 2 Norte 6 Norte 0 -- -- 90
2020-03-30 05:00:00 11 3 Norte 8 Noroeste 0 -- -- 90
2020-03-30 04:00:00 11.2 4 Norte 6 Norte 0 -- -- 87
2020-03-30 03:00:00 11.3 0 Calma 5 Noroeste 0 -- -- 87
2020-03-30 02:00:00 11.6 3 Norte 6 Nordeste 0 -- -- 84
2020-03-30 01:00:00 12.7 0 Calma 8 Sudoeste 0 -- -- 83
2020-03-30 00:00:00 14.2 0 Calma 9 Sudoeste 0 -- -- 82
2020-03-29 23:00:00 14.6 2 Sur 10 Sudoeste 0 -- -- 78
2020-03-29 22:00:00 14.7 3 Sudoeste 13 Sudoeste 0 -- -- 77
2020-03-29 21:00:00 15 4 Sudoeste 18 Sudoeste 0 -- -- 70
2020-03-29 20:00:00 16 8 Oeste 24 Oeste 0 -- -- 58
2020-03-29 19:00:00 17.5 8 Sudoeste 24 Sur 0 -- -- 53
2020-03-29 18:00:00 17.5 12 Sudoeste 29 Sudoeste 0 -- -- 59
2020-03-29 17:00:00 18.9 12 Sudoeste 27 Sudoeste 0 -- -- 47
2020-03-29 16:00:00 19.1 12 Sudoeste 29 Sudoeste 0 -- -- 55
2020-03-29 15:00:00 20.3 5 Sudoeste 22 Sudoeste 0 -- -- 47
2020-03-29 14:00:00 19.1 14 Sur 24 Sudoeste 0 -- -- 49
2020-03-29 13:00:00 18.8 9 Sur 17 Sur 0 -- -- 54
2020-03-29 12:00:00 18 8 Sudoeste 16 Sur 0 -- -- 53
2020-03-29 11:00:00 15.7 4 Sudeste 8 Este 0 -- -- 71
2020-03-29 10:00:00 13.6 0 Calma -- -- 0 -- -- 74
2020-03-29 09:00:00 11.6 0 Calma 0 Calma 0 -- -- 73
2020-03-29 08:00:00 9.5 0 Calma 6 Norte 0 -- -- 84
2020-03-29 07:00:00 9.3 0 Calma 4 Oeste 0 -- -- 85
2020-03-29 06:00:00 9.6 0 Calma 5 Norte 0 -- -- 78
2020-03-29 05:00:00 9.9 2 Norte 6 Norte 0 -- -- 74
2020-03-29 03:00:00 11.5 0 Calma -- -- 0 -- -- 83
2020-03-29 01:00:00 12.2 0 Calma 4 Noroeste 0 -- -- 78
2020-03-29 00:00:00 12.4 2 Norte 6 Noroeste 0 -- -- 77
2020-03-28 23:00:00 13 3 Noroeste 5 Norte 0 -- -- 71
2020-03-28 22:00:00 13.2 0 Calma 6 Noroeste 0 -- -- 75
2020-03-28 21:00:00 13.6 3 Norte 6 Noroeste 0 -- -- 73
2020-03-28 20:00:00 13.9 0 Calma 7 Sur 0 -- -- 71
2020-03-28 19:00:00 14.3 3 Sudoeste 8 Sudoeste 0 -- -- 68
2020-03-28 18:00:00 14.6 4 Sudoeste 10 Sudoeste 0 -- -- 68
2020-03-28 17:00:00 14.7 5 Sudoeste 15 Sudoeste 0 -- -- 70
2020-03-28 16:00:00 14.6 9 Sur 20 Sudeste 0 -- -- 69
2020-03-28 15:00:00 16.3 5 Sur 11 Este 0 -- -- 54
2020-03-28 14:00:00 16.6 3 Sur 10 Sudoeste 0 -- -- 50
2020-03-28 13:00:00 16 4 Sudeste 10 Nordeste 0 -- -- 57
2020-03-28 12:00:00 14.9 5 Nordeste 14 Nordeste 0.1 -- -- 60
2020-03-28 11:00:00 12 7 Nordeste 16 Nordeste 0 -- -- 78
2020-03-28 10:00:00 12 6 Nordeste 12 Nordeste 0 -- -- 70
2020-03-28 09:00:00 11.2 0 Calma 15 Noroeste 0 -- -- 76
2020-03-28 08:00:00 11.2 9 Noroeste 15 Noroeste 0 -- -- 70
2020-03-28 07:00:00 8.3 0 Calma 6 Nordeste 0 -- -- 81
2020-03-28 06:00:00 8.4 0 Calma 9 Noroeste 0 -- -- 77
2020-03-28 05:00:00 8.6 3 Noroeste 15 Nordeste 0 -- -- 74
2020-03-28 04:00:00 9.7 4 Nordeste 15 Nordeste 0 -- -- 72
2020-03-28 03:00:00 9.1 7 Noroeste 13 Noroeste 0 -- -- 71
2020-03-28 02:00:00 8.6 4 Norte 11 Nordeste 0 -- -- 76
2020-03-28 01:00:00 9.5 5 Nordeste 14 Noroeste 0 -- -- 72
2020-03-28 00:00:00 9.5 4 Norte 9 Norte 0 -- -- 73
2020-03-27 23:00:00 9.8 4 Norte 9 Nordeste 0 -- -- 70
2020-03-27 22:00:00 10.7 3 Norte 11 Norte 0 -- -- 66
2020-03-27 21:00:00 11.2 6 Norte 15 Norte 0 -- -- 58
2020-03-27 20:00:00 11.9 9 Norte 20 Norte 0 -- -- 52
2020-03-27 19:00:00 12.9 9 Noroeste 20 Norte 0 -- -- 50
2020-03-27 18:00:00 13.9 6 Norte 19 Nordeste 0 -- -- 46
2020-03-27 17:00:00 14.5 3 Sur 16 Sur 0 -- -- 45
2020-03-27 16:00:00 15.1 8 Sur 22 Sur 0 -- -- 45
2020-03-27 15:00:00 14.6 14 Sur 27 Sur 0 -- -- 45
2020-03-27 14:00:00 14.9 11 Sur 21 Sudoeste 0 -- -- 39
2020-03-27 13:00:00 14.9 9 Sur 17 Sudoeste 0 -- -- 44
2020-03-27 12:00:00 15 8 Sudeste 22 Sudeste 0 -- -- 41
2020-03-27 11:00:00 14.7 7 Este 14 Este 0 -- -- 42
2020-03-27 10:00:00 14.5 4 Este 12 Nordeste 0 -- -- 47
2020-03-27 09:00:00 11.8 8 Nordeste 12 Norte 0 -- -- 47
2020-03-27 08:00:00 10.5 5 Norte 11 Norte 0 -- -- 52
2020-03-27 07:00:00 8.5 4 Norte 12 Norte 0.1 -- -- 59
2020-03-27 06:00:00 8.1 4 Norte 10 Norte 0 -- -- 62
2020-03-27 05:00:00 8.3 3 Norte 13 Noroeste 0 -- -- 63
2020-03-27 04:00:00 8.7 6 Norte 15 Noroeste 0 -- -- 62
2020-03-27 03:00:00 8.8 6 Norte 19 Nordeste 0 -- -- 66
2020-03-27 02:00:00 9.2 8 Norte 18 Norte 0 -- -- 68
2020-03-27 01:00:00 8.8 5 Norte 25 Norte 0 -- -- 77
2020-03-27 00:00:00 8.8 7 Norte 17 Este 0 -- -- 83
2020-03-26 23:00:00 9.2 9 Nordeste 29 Nordeste 0 -- -- 82
2020-03-26 22:00:00 9.9 12 Nordeste 23 Nordeste 0.1 -- -- 75
2020-03-26 21:00:00 9.3 3 Norte 14 Norte 0 -- -- 73
2020-03-26 20:00:00 9.9 6 Noroeste 14 Noroeste 0 -- -- 65
2020-03-26 19:00:00 10 5 Noroeste 19 Nordeste 0 -- -- 65
2020-03-26 18:00:00 9.9 9 Nordeste 27 Nordeste 0 -- -- 67
2020-03-26 17:00:00 10.4 14 Nordeste 32 Nordeste 0.1 -- -- 67
2020-03-26 16:00:00 9.9 18 Nordeste 39 Nordeste 0 -- -- 72
2020-03-26 15:00:00 10.5 19 Nordeste 33 Este 0 -- -- 70
2020-03-26 14:00:00 11.2 19 Nordeste 34 Nordeste 0 -- -- 72
2020-03-26 13:00:00 12.6 11 Este 23 Este 0 -- -- 63
2020-03-26 12:00:00 10.5 6 Norte 19 Norte 0 -- -- 72
2020-03-26 11:00:00 9.7 11 Nordeste 17 Nordeste 0.9 -- -- 75
2020-03-26 10:00:00 8.1 5 Noroeste 17 Noroeste 3.7 -- -- 89
2020-03-26 09:00:00 8.4 7 Norte 13 Nordeste 1.9 -- -- 89
2020-03-26 08:00:00 8.4 3 Norte 9 Noroeste 0.2 -- -- 77
2020-03-26 07:00:00 7.9 3 Norte 7 Noroeste 0 -- -- 80
2020-03-26 06:00:00 8.1 3 Norte 6 Noroeste 0 -- -- 76
2020-03-26 05:00:00 8.3 0 Calma 9 Oeste 0 -- -- 77
2020-03-26 04:00:00 8.9 0 Calma 10 Noroeste 0 -- -- 73
2020-03-26 03:00:00 9.5 4 Oeste 21 Oeste 0 -- -- 68
2020-03-26 02:00:00 9.2 3 Norte 9 Norte 0 -- -- 59
2020-03-26 01:00:00 9.2 3 Nordeste 7 Norte 0 -- -- 59
2020-03-26 00:00:00 8.7 4 Norte 7 Nordeste 0 -- -- 61
2020-03-25 23:00:00 9.2 3 Norte 8 Norte 0 -- -- 57
2020-03-25 22:00:00 9.3 5 Noroeste 9 Noroeste 0 -- -- 52
2020-03-25 21:00:00 9.8 2 Norte 14 Nordeste 0 -- -- 53
2020-03-25 20:00:00 10.7 6 Este 21 Nordeste 0 -- -- 47
2020-03-25 19:00:00 11.3 10 Este 20 Este 0 -- -- 46
2020-03-25 18:00:00 12.4 8 Este 18 Este 0 -- -- 43
2020-03-25 17:00:00 12.7 9 Este 24 Este 0 -- -- 39
2020-03-25 16:00:00 14.3 12 Este 28 Nordeste 0 -- -- 39
2020-03-25 15:00:00 13.4 12 Nordeste 23 Nordeste 0 -- -- 36
2020-03-25 14:00:00 13.9 10 Nordeste 27 Nordeste 0 -- -- 39
2020-03-25 13:00:00 14 11 Nordeste 29 Nordeste 0 -- -- 34
2020-03-25 12:00:00 14.1 11 Este 27 Nordeste 0 -- -- 44
2020-03-25 11:00:00 12.7 12 Nordeste 29 Nordeste 0 -- -- 48
2020-03-25 10:00:00 10.7 14 Nordeste 32 Nordeste 0 -- -- 55
2020-03-25 09:00:00 9.8 16 Nordeste 43 Este 0 -- -- 65
2020-03-25 08:00:00 10.2 5 Norte 15 Nordeste 0 -- -- 56
2020-03-25 07:00:00 9.9 9 Nordeste 16 Norte 0 -- -- 57
2020-03-25 06:00:00 9.6 6 Norte 16 Norte 0 -- -- 59
2020-03-25 05:00:00 9.8 8 Nordeste 18 Norte 0 -- -- 64
2020-03-25 04:00:00 9.3 6 Norte 20 Nordeste 0 -- -- 74
2020-03-25 03:00:00 9.8 8 Nordeste 30 Nordeste 0 -- -- 75
2020-03-25 02:00:00 10.4 9 Nordeste 18 Norte 0 -- -- 72
2020-03-25 01:00:00 10.1 11 Norte 53 Nordeste 0.6 -- -- 77
2020-03-25 00:00:00 11.6 15 Nordeste 29 Nordeste 0 -- -- 64
2020-03-24 23:00:00 11.8 17 Nordeste 38 Nordeste 0 -- -- 61
2020-03-24 22:00:00 12.2 13 Nordeste 25 Nordeste 0 -- -- 58
2020-03-24 21:00:00 12.2 12 Nordeste 25 Este 0 -- -- 56
2020-03-24 20:00:00 12.5 16 Nordeste 37 Nordeste 0 -- -- 52
2020-03-24 19:00:00 13.1 21 Nordeste 43 Norte 0 -- -- 57
2020-03-24 18:00:00 13.9 26 Nordeste 47 Este 0 -- -- 56
2020-03-24 17:00:00 14.4 24 Nordeste 53 Nordeste 0 -- -- 52
2020-03-24 16:00:00 15.3 30 Nordeste 49 Nordeste 0 -- -- 63
2020-03-24 15:00:00 15.5 23 Nordeste 43 Nordeste 0 -- -- 61
2020-03-24 14:00:00 15.8 18 Nordeste 37 Nordeste 0 -- -- 63
2020-03-24 13:00:00 15.1 20 Nordeste 41 Nordeste 0 -- -- 71
2020-03-24 12:00:00 15.8 23 Nordeste 49 Nordeste 0 -- -- 65
2020-03-24 11:00:00 15.3 25 Nordeste 42 Nordeste 0 -- -- 67
2020-03-24 10:00:00 14.8 23 Nordeste 47 Nordeste 0 -- -- 67
2020-03-24 09:00:00 14.4 17 Nordeste 43 Nordeste 0 -- -- 68
2020-03-24 08:00:00 14 17 Nordeste 39 Nordeste 0 -- -- 72
2020-03-24 07:00:00 13.6 17 Nordeste 37 Nordeste 0 -- -- 77
2020-03-24 06:00:00 13.5 16 Nordeste 31 Nordeste 0 -- -- 79
2020-03-24 05:00:00 13.8 13 Nordeste 28 Nordeste 0 -- -- 80
2020-03-24 04:00:00 14.2 13 Nordeste 27 Nordeste 0 -- -- 81
2020-03-24 03:00:00 14.1 12 Nordeste 27 Nordeste 0 -- -- 82
2020-03-24 02:00:00 14.3 14 Nordeste 24 Nordeste 0 -- -- 83
2020-03-24 01:00:00 14.2 14 Nordeste 27 Norte 0 -- -- 79
2020-03-24 00:00:00 14.2 14 Nordeste 25 Norte 0 -- -- 79
2020-03-23 23:00:00 14.5 11 Nordeste 21 Nordeste 0 -- -- 81
2020-03-23 22:00:00 14.8 10 Nordeste 23 Nordeste 0 -- -- 79
2020-03-23 21:00:00 14.9 11 Nordeste 29 Nordeste 0 -- -- 78
2020-03-23 20:00:00 15.4 11 Nordeste 32 Este 0 -- -- 77
2020-03-23 19:00:00 16.1 14 Nordeste 31 Este 0 -- -- 75
2020-03-23 18:00:00 17.2 14 Nordeste 35 Nordeste 0 -- -- 66
2020-03-23 17:00:00 18 19 Nordeste 32 Nordeste 0 -- -- 63
2020-03-23 16:00:00 19.3 9 Este 20 Sudeste 0 -- -- 53
2020-03-23 15:00:00 18.3 7 Sudoeste 18 Nordeste 0 -- -- 68
2020-03-23 14:00:00 19.4 4 Sur 15 Sudoeste 0 -- -- 56
2020-03-23 13:00:00 19 4 Sur 14 Sudoeste 0 -- -- 64
2020-03-23 12:00:00 19.5 10 Este 21 Nordeste 0 -- -- 57
2020-03-23 11:00:00 18.1 8 Nordeste 14 Nordeste 0 -- -- 73
2020-03-23 10:00:00 17.4 8 Nordeste 15 Nordeste 0 -- -- 74
2020-03-23 09:00:00 15 7 Nordeste 13 Nordeste 0 -- -- 79
2020-03-23 08:00:00 14 6 Norte 10 Nordeste 0 -- -- 82
2020-03-23 07:00:00 13.1 3 Norte 8 Norte 0 -- -- 87
2020-03-23 06:00:00 13.1 3 Norte 8 Norte 0 -- -- 87
2020-03-23 05:00:00 13.1 3 Norte 10 Norte 0 -- -- 87
2020-03-23 04:00:00 13.5 5 Norte 9 Nordeste 0 -- -- 86
2020-03-23 03:00:00 13.4 3 Norte 11 Norte 0 -- -- 86
2020-03-23 02:00:00 12.9 5 Norte 11 Noroeste 0 -- -- 88
2020-03-23 01:00:00 13.4 4 Norte 9 Norte 0 -- -- 87
2020-03-23 00:00:00 13.6 4 Norte 9 Norte 0 -- -- 86
2020-03-22 23:00:00 13.3 4 Norte 9 Norte 0 -- -- 89
2020-03-22 22:00:00 14.2 4 Nordeste 9 Este 0 -- -- 87
2020-03-22 21:00:00 15.2 6 Sur 10 Sur 0 -- -- 75
2020-03-22 20:00:00 15.3 4 Sur 13 Sur 0 -- -- 78
2020-03-22 19:00:00 15.7 8 Sudoeste 14 Sur 0 -- -- 80
2020-03-22 18:00:00 15.9 5 Sur 10 Sudoeste 0 -- -- 78
2020-03-22 17:00:00 16.2 5 Sur 12 Sudoeste 0 -- -- 76
2020-03-22 16:00:00 16.9 6 Sur 12 Sur 0 -- -- 70
2020-03-22 15:00:00 17.8 4 Sudeste 10 Sudeste 0 -- -- 64
2020-03-22 14:00:00 16.4 4 Nordeste 12 Norte 0 -- -- 75
2020-03-22 13:00:00 14.7 7 Norte 18 Norte 0 -- -- 82
2020-03-22 12:00:00 13.2 12 Nordeste 23 Sur 21.7 -- -- 82
2020-03-22 11:00:00 16.3 5 Nordeste 14 Nordeste 0 -- -- 77
2020-03-22 10:00:00 16 8 Nordeste 13 Nordeste 0 -- -- 78
2020-03-22 09:00:00 14.7 5 Nordeste 12 Nordeste 0 -- -- 73
2020-03-22 08:00:00 14 3 Nordeste 9 Norte 0 -- -- 77
2020-03-22 07:00:00 13.2 4 Nordeste 8 Norte 0 -- -- 83
2020-03-22 06:00:00 13.2 2 Nordeste 9 Noroeste 0 -- -- 86
2020-03-22 05:00:00 13.2 5 Noroeste 9 Noroeste 0 -- -- 83
2020-03-22 04:00:00 13.5 0 Calma 6 Este 0 -- -- 89
2020-03-22 03:00:00 14.2 2 Nordeste 6 Nordeste 0 -- -- 88
2020-03-22 02:00:00 14.5 0 Calma 5 Sudoeste 0 -- -- 86
2020-03-22 01:00:00 14.7 3 Sudoeste 6 Sudoeste 0 -- -- 83
2020-03-22 00:00:00 14.7 0 Calma 5 Norte 0 -- -- 80
2020-03-21 23:00:00 14.8 0 Calma 8 Nordeste 0 -- -- 80
2020-03-21 22:00:00 14.9 3 Este 9 Nordeste 0 -- -- 83
2020-03-21 21:00:00 14.9 4 Nordeste 23 Nordeste 0.4 -- -- 83
2020-03-21 20:00:00 15.4 10 Nordeste 22 Nordeste 0 -- -- 85
2020-03-21 19:00:00 15.9 2 Oeste 14 Sudoeste 0 -- -- 80
2020-03-21 18:00:00 16 6 Sudoeste 17 Sudoeste 0 -- -- 79
2020-03-21 17:00:00 16.1 7 Sudoeste 15 Sudoeste 0 -- -- 77
2020-03-21 16:00:00 16.3 8 Sudoeste 18 Sudoeste 0 -- -- 77
2020-03-21 15:00:00 16.2 9 Sudoeste 23 Sur 0 -- -- 78
2020-03-21 14:00:00 18.4 7 Este 20 Este 0 -- -- 60
2020-03-21 13:00:00 19.1 10 Este 20 Nordeste 0 -- -- 55
2020-03-21 12:00:00 19.8 9 Este 23 Nordeste 0 -- -- 58
2020-03-21 11:00:00 17.3 10 Nordeste 29 Nordeste 0 -- -- 67
2020-03-21 10:00:00 16.5 12 Nordeste 25 Este 0 -- -- 68
2020-03-21 09:00:00 15.2 9 Nordeste 14 Nordeste 0 -- -- 67
2020-03-21 08:00:00 13.3 0 Calma 9 Norte 0 -- -- 69
2020-03-21 07:00:00 12.8 3 Norte 8 Noroeste 0 -- -- 69
2020-03-21 06:00:00 13.4 4 Norte 12 Norte 0 -- -- 67
2020-03-21 05:00:00 13.3 4 Norte 11 Noroeste 0 -- -- 67
2020-03-21 04:00:00 13.4 4 Norte 21 Nordeste 0 -- -- 72
2020-03-21 03:00:00 14 14 Nordeste 23 Nordeste 0 -- -- 73
2020-03-21 02:00:00 14 12 Nordeste 21 Nordeste 0 -- -- 75
2020-03-21 01:00:00 13.8 11 Nordeste 21 Nordeste 0 -- -- 78
2020-03-21 00:00:00 13.9 11 Nordeste 21 Nordeste 0 -- -- 77
2020-03-20 23:00:00 14.2 12 Nordeste 26 Nordeste 0 -- -- 77
2020-03-20 22:00:00 14.4 15 Nordeste 33 Nordeste 0 -- -- 76
2020-03-20 21:00:00 14.8 16 Nordeste 34 Este 0 -- -- 75
2020-03-20 20:00:00 15 12 Nordeste 27 Nordeste 0 -- -- 74
2020-03-20 19:00:00 15.9 13 Nordeste 30 Nordeste 0 -- -- 70
2020-03-20 18:00:00 16.6 16 Nordeste 29 Nordeste 0 -- -- 60
2020-03-20 17:00:00 17.1 15 Nordeste 27 Nordeste 0 -- -- 57
2020-03-20 16:00:00 17.9 13 Nordeste 30 Nordeste 0 -- -- 55
2020-03-20 15:00:00 18.2 15 Nordeste 29 Este 0 -- -- 51
2020-03-20 14:00:00 19.2 10 Nordeste 22 Nordeste 0 -- -- 50
2020-03-20 13:00:00 17.7 13 Nordeste 27 Nordeste 0 -- -- 54
2020-03-20 12:00:00 17.7 15 Nordeste 32 Este 0 -- -- 54
2020-03-20 11:00:00 17.4 14 Este 26 Nordeste 0 -- -- 57
2020-03-20 10:00:00 15.8 14 Nordeste 27 Nordeste 0 -- -- 65
2020-03-20 09:00:00 14.6 11 Nordeste 20 Nordeste 0 -- -- 72
2020-03-20 08:00:00 13 10 Norte 16 Nordeste 0 -- -- 75
2020-03-20 07:00:00 12.3 6 Norte 14 Noroeste 0 -- -- 75
2020-03-20 06:00:00 12.2 6 Norte 14 Norte 0 -- -- 75
2020-03-20 05:00:00 12.1 7 Norte 18 Norte 0 -- -- 76
2020-03-20 04:00:00 12.5 8 Norte 16 Norte 0 -- -- 77
2020-03-20 03:00:00 12.4 8 Norte 14 Norte 0 -- -- 81
2020-03-20 02:00:00 12.6 9 Norte 16 Nordeste 0 -- -- 81
2020-03-20 01:00:00 12.8 7 Norte 12 Norte 0 -- -- 78
2020-03-20 00:00:00 13.2 9 Nordeste 15 Nordeste 0 -- -- 77
2020-03-19 23:00:00 13.3 11 Nordeste 15 Norte 0 -- -- 75
2020-03-19 22:00:00 13.7 8 Nordeste 15 Nordeste 0 -- -- 77
2020-03-19 21:00:00 14 9 Nordeste 19 Nordeste 0 -- -- 76
2020-03-19 20:00:00 14.4 10 Nordeste 22 Nordeste 0 -- -- 71
2020-03-19 19:00:00 15.8 11 Nordeste 21 Nordeste 0 -- -- 63
2020-03-19 18:00:00 16.3 3 Sudoeste 17 Sudoeste 0 -- -- 67
2020-03-19 17:00:00 16.9 7 Sudoeste 17 Sudoeste 0 -- -- 69
2020-03-19 16:00:00 16.7 10 Sudoeste 21 Sur 0 -- -- 69
2020-03-19 15:00:00 17.5 9 Sur 21 Sur 0 -- -- 68
2020-03-19 14:00:00 17.4 10 Sur 19 Sur 0 -- -- 68
2020-03-19 13:00:00 18.4 9 Sur 17 Sur 0 -- -- 59
2020-03-19 12:00:00 19 8 Este 16 Este 0 -- -- 52
2020-03-19 11:00:00 17.3 10 Este 19 Este 0 -- -- 64
2020-03-19 10:00:00 15.6 10 Nordeste 17 Nordeste 0 -- -- 74
2020-03-19 09:00:00 14.1 6 Nordeste 13 Norte 0 -- -- 77
2020-03-19 08:00:00 12.8 5 Norte 13 Norte 0 -- -- 80
2020-03-19 07:00:00 12.6 6 Norte 17 Norte 0 -- -- 79
2020-03-19 06:00:00 12.8 7 Norte 17 Norte 0 -- -- 79
2020-03-19 05:00:00 13.1 7 Norte 13 Norte 0 -- -- 76
2020-03-19 04:00:00 13.1 6 Norte 13 Norte 0 -- -- 73
2020-03-19 03:00:00 13.1 3 Norte 9 Nordeste 0 -- -- 76
2020-03-19 02:00:00 13.6 3 Norte 10 Norte 0 -- -- 76
2020-03-19 01:00:00 13.7 4 Norte 11 Noroeste 0 -- -- 78
2020-03-19 00:00:00 13.8 4 Norte 10 Norte 0 -- -- 80
2020-03-18 23:00:00 14.1 3 Norte 23 Nordeste 0 -- -- 81
2020-03-18 22:00:00 14.8 8 Nordeste 15 Este 0 -- -- 81
2020-03-18 21:00:00 14.9 9 Nordeste 17 Nordeste 0 -- -- 79
2020-03-18 20:00:00 15.3 9 Nordeste 23 Este 0 -- -- 75
2020-03-18 19:00:00 15.8 11 Nordeste 23 Nordeste 0 -- -- 74
2020-03-18 18:00:00 16.4 14 Nordeste 26 Nordeste 0 -- -- 71
2020-03-18 17:00:00 17.3 12 Este 24 Nordeste 0 -- -- 67
2020-03-18 16:00:00 18 11 Nordeste 23 Este 0 -- -- 65
2020-03-18 15:00:00 18.6 12 Nordeste 26 Este 0 -- -- 63
2020-03-18 14:00:00 17.9 14 Nordeste 25 Nordeste 0 -- -- 64
2020-03-18 13:00:00 18.1 14 Nordeste 27 Nordeste 0 -- -- 68
2020-03-18 12:00:00 17.3 13 Nordeste 28 Nordeste 0 -- -- 65
2020-03-18 11:00:00 16.7 18 Nordeste 33 Nordeste 0 -- -- 67
2020-03-18 10:00:00 16 15 Nordeste 27 Nordeste 0 -- -- 72
2020-03-18 09:00:00 15.3 14 Nordeste 24 Nordeste 0 -- -- 75
2020-03-18 08:00:00 14.9 10 Nordeste 23 Norte 0 -- -- 74
2020-03-18 07:00:00 14.5 9 Nordeste 27 Nordeste 0 -- -- 74
2020-03-18 06:00:00 14.7 12 Nordeste 29 Nordeste 0 -- -- 73
2020-03-18 05:00:00 15.1 11 Nordeste 25 Nordeste 0 -- -- 69
2020-03-18 04:00:00 14.8 12 Nordeste 71 Nordeste 0 -- -- 74
2020-03-18 03:00:00 14.9 11 Nordeste 23 Nordeste 0 -- -- 72
2020-03-18 02:00:00 15.3 11 Nordeste 26 Nordeste 0 -- -- 68
2020-03-18 01:00:00 15.7 13 Nordeste 30 Este 0 -- -- 66
2020-03-18 00:00:00 15.6 17 Nordeste 31 Nordeste 0 -- -- 67
2020-03-17 23:00:00 15.5 17 Nordeste 34 Nordeste 0 -- -- 71
2020-03-17 22:00:00 15.5 17 Nordeste 31 Nordeste 0 -- -- 72
2020-03-17 21:00:00 15.4 17 Nordeste 33 Nordeste 0 -- -- 77
2020-03-17 20:00:00 15.5 18 Nordeste 33 Nordeste 0 -- -- 77
2020-03-17 19:00:00 15.8 17 Nordeste 36 Nordeste 0 -- -- 75
2020-03-17 18:00:00 16.4 18 Nordeste 36 Nordeste 0 -- -- 71
2020-03-17 17:00:00 17.2 17 Este 36 Este 0 -- -- 63
2020-03-17 16:00:00 17.7 19 Nordeste 39 Nordeste 0 -- -- 63
2020-03-17 15:00:00 17.8 18 Nordeste 38 Nordeste 0 -- -- 67
2020-03-17 14:00:00 18.4 18 Nordeste 42 Nordeste 0 -- -- 68
2020-03-17 13:00:00 17.4 22 Nordeste 41 Este 0 -- -- 73
2020-03-17 12:00:00 16.8 19 Nordeste 33 Nordeste 0 -- -- 77
2020-03-17 11:00:00 16.7 14 Nordeste 29 Nordeste 0 -- -- 79
2020-03-17 10:00:00 16.4 15 Nordeste 32 Nordeste 0 -- -- 81
2020-03-17 09:00:00 15.9 13 Nordeste 26 Nordeste 0 -- -- 85
2020-03-17 08:00:00 15.9 10 Nordeste 32 Nordeste 0 -- -- 87
2020-03-17 07:00:00 15.9 16 Este 29 Nordeste 0 -- -- 87
2020-03-17 06:00:00 16.2 8 Nordeste 23 Norte 0.1 -- -- 83
2020-03-17 05:00:00 15.9 14 Norte 29 Norte 0.1 -- -- 84
2020-03-17 04:00:00 16.1 8 Nordeste 19 Este 0 -- -- 83
2020-03-17 03:00:00 16.2 11 Norte 22 Nordeste 0 -- -- 82
2020-03-17 02:00:00 16.2 11 Nordeste 22 Norte 0 -- -- 83
2020-03-17 01:00:00 16 10 Nordeste 20 Nordeste 0 -- -- 84
2020-03-17 00:00:00 16 10 Nordeste 21 Nordeste 0 -- -- 84
2020-03-16 23:00:00 16.2 13 Nordeste 27 Nordeste 0 -- -- 84
2020-03-16 22:00:00 16.3 12 Nordeste 21 Nordeste 0 -- -- 82
2020-03-16 21:00:00 16.6 9 Este 21 Este 0 -- -- 82
2020-03-16 20:00:00 16.7 8 Este 20 Este 0 -- -- 81
2020-03-16 19:00:00 16.9 12 Este 19 Este 0 -- -- 81
2020-03-16 18:00:00 17.2 7 Sudeste 15 Sudeste 0 -- -- 78
2020-03-16 17:00:00 17.6 7 Sudeste 18 Sudeste 0 -- -- 78
2020-03-16 16:00:00 18.4 9 Este 21 Este 0 -- -- 73
2020-03-16 15:00:00 18.9 9 Sudeste 22 Este 0 -- -- 72
2020-03-16 14:00:00 18.6 8 Este 21 Este 0 -- -- 72
2020-03-16 13:00:00 18.1 13 Este 26 Este 0 -- -- 76
2020-03-16 12:00:00 17 12 Este 24 Este 0 -- -- 79
2020-03-16 11:00:00 16 11 Nordeste 28 Nordeste 0.2 -- -- 88
2020-03-16 10:00:00 15.4 9 Nordeste 22 Este 0.4 -- -- 86
2020-03-16 09:00:00 15.4 8 Nordeste 17 Nordeste 0 -- -- 80
2020-03-16 08:00:00 15 8 Nordeste 22 Nordeste 0 -- -- 80
2020-03-16 07:00:00 14.7 11 Nordeste 20 Nordeste 0 -- -- 78
2020-03-16 06:00:00 14.5 10 Nordeste 21 Nordeste 0 -- -- 77
2020-03-16 05:00:00 13.8 12 Norte 18 Norte 0 -- -- 77
2020-03-16 04:00:00 13.5 9 Nordeste 16 Norte 0 -- -- 75
2020-03-16 03:00:00 13.8 8 Nordeste 16 Nordeste 0 -- -- 72
2020-03-16 02:00:00 13.3 7 Norte 20 Norte 0 -- -- 75
2020-03-16 01:00:00 12.9 8 Norte 20 Norte 0 -- -- 80
2020-03-16 00:00:00 13.1 6 Norte 13 Norte 0 -- -- 81
2020-03-15 23:00:00 13.6 5 Norte 17 Nordeste 0 -- -- 79
2020-03-15 22:00:00 13.9 9 Nordeste 18 Este 0 -- -- 79
2020-03-15 21:00:00 14.5 8 Nordeste 17 Nordeste 0 -- -- 73
2020-03-15 20:00:00 15.1 7 Este 18 Sudeste 0 -- -- 67
2020-03-15 19:00:00 16.6 7 Sudeste 18 Sudeste 0 -- -- 62
2020-03-15 18:00:00 16.3 3 Sudoeste 18 Noroeste 0 -- -- 73
2020-03-15 17:00:00 16.1 10 Noroeste 18 Noroeste 0 -- -- 74
2020-03-15 16:00:00 16.4 12 Sudoeste 20 Sudoeste 0 -- -- 73
2020-03-15 15:00:00 17.9 5 Oeste 22 Sur 0 -- -- 68
2020-03-15 14:00:00 17 9 Sudoeste 21 Sudoeste 0 -- -- 70
2020-03-15 13:00:00 17.1 10 Sur 23 Sur 0 -- -- 69
2020-03-15 12:00:00 16.6 9 Sur 15 Sur 0 -- -- 68
2020-03-15 11:00:00 16.5 3 Sudeste 9 Sudeste 0 -- -- 61
2020-03-15 10:00:00 15.2 4 Nordeste 9 Este 0 -- -- 71
2020-03-15 09:00:00 14 3 Nordeste 8 Este 0 -- -- 74
2020-03-15 08:00:00 11.6 2 Nordeste 5 Nordeste 0 -- -- 85
2020-03-15 07:00:00 10.4 3 Nordeste 5 Noroeste 0 -- -- 89
2020-03-15 06:00:00 10.4 3 Nordeste 7 Nordeste 0 -- -- 89
2020-03-15 05:00:00 10.7 5 Norte 7 Norte 0 -- -- 88
2020-03-15 04:00:00 11.3 4 Norte 6 Norte 0 -- -- 86
2020-03-15 03:00:00 11.9 0 Calma 6 Noroeste 0 -- -- 83
2020-03-15 02:00:00 12.9 4 Noroeste 7 Noroeste 0 -- -- 82
2020-03-15 01:00:00 13.4 2 Norte 7 Noroeste 0 -- -- 80
2020-03-15 00:00:00 13.7 2 Este 6 Sudeste 0 -- -- 78
2020-03-14 23:00:00 14.4 2 Nordeste 9 Sudeste 0 -- -- 79
2020-03-14 22:00:00 14.8 3 Sur 9 Sudeste 0 -- -- 75
2020-03-14 21:00:00 14.8 4 Sur 10 Sur 0 -- -- 74
2020-03-14 20:00:00 15 5 Sur 14 Sur 0 -- -- 73
2020-03-14 19:00:00 15.4 7 Sur 18 Sur 0 -- -- 70
2020-03-14 18:00:00 16 10 Sudoeste 17 Sudoeste 0 -- -- 66
2020-03-14 17:00:00 16.7 9 Sur 19 Sur 0 -- -- 63
2020-03-14 16:00:00 17.1 11 Sur 21 Sur 0 -- -- 63
2020-03-14 15:00:00 17.5 13 Sur 23 Sudoeste 0 -- -- 62
2020-03-14 14:00:00 18.2 9 Sudoeste 20 Sur 0 -- -- 64
2020-03-14 13:00:00 19 8 Sur 13 Sudoeste 0 -- -- 54
2020-03-14 12:00:00 18.6 3 Sudeste 17 Este 0 -- -- 51
2020-03-14 11:00:00 17.3 9 Este 15 Este 0 -- -- 58
2020-03-14 10:00:00 16.1 9 Nordeste 17 Nordeste 0 -- -- 73
2020-03-14 09:00:00 14.7 6 Nordeste 9 Norte 0 -- -- 67
2020-03-14 08:00:00 13.3 3 Norte 7 Noroeste 0 -- -- 75
2020-03-14 07:00:00 12.2 3 Nordeste 6 Nordeste 0 -- -- 78
2020-03-14 06:00:00 11.9 2 Norte 6 Noroeste 0 -- -- 83
2020-03-14 05:00:00 12.4 0 Calma 6 Norte 0 -- -- 78
2020-03-14 04:00:00 12.8 3 Norte 16 Noroeste 0 -- -- 75
2020-03-14 03:00:00 13.1 4 Noroeste 9 Noroeste 0.6 -- -- 68
2020-03-14 02:00:00 13.9 0 Calma 8 Norte 0.5 -- -- 69
2020-03-14 01:00:00 13.8 2 Norte 9 Nordeste 0 -- -- 60
2020-03-14 00:00:00 13.8 0 Calma 13 Nordeste 0 -- -- 59
2020-03-13 23:00:00 14.4 7 Nordeste 15 Nordeste 0 -- -- 56
2020-03-13 22:00:00 14.6 8 Nordeste 17 Este 0 -- -- 63
2020-03-13 21:00:00 15.5 11 Nordeste 18 Norte 0 -- -- 55
2020-03-13 20:00:00 15.8 5 Este 16 Este 0 -- -- 54
2020-03-13 19:00:00 16.7 8 Nordeste 20 Nordeste 0 -- -- 53
2020-03-13 18:00:00 17.8 14 Nordeste 29 Nordeste 0 -- -- 51
2020-03-13 17:00:00 18.5 18 Nordeste 29 Este 0 -- -- 49
2020-03-13 16:00:00 19.7 12 Nordeste 30 Nordeste 0 -- -- 53
2020-03-13 15:00:00 20.3 16 Este 34 Nordeste 0 -- -- 50
2020-03-13 14:00:00 19.5 20 Nordeste 40 Nordeste 0 -- -- 50
2020-03-13 13:00:00 19 22 Nordeste 38 Nordeste 0 -- -- 62
2020-03-13 12:00:00 18.7 18 Nordeste 43 Nordeste 0 -- -- 58
2020-03-13 11:00:00 18.5 15 Nordeste 37 Nordeste 0 -- -- 60
2020-03-13 10:00:00 17.4 17 Nordeste 33 Nordeste 0 -- -- 63
2020-03-13 09:00:00 16 15 Nordeste 32 Nordeste 0 -- -- 71
2020-03-13 08:00:00 15.4 16 Nordeste 29 Nordeste 0 -- -- 74
2020-03-13 07:00:00 15.1 11 Nordeste 27 Norte 0 -- -- 72
2020-03-13 06:00:00 14.3 6 Norte 17 Norte 0 -- -- 62
2020-03-13 05:00:00 14.3 6 Norte 16 Norte 0 -- -- 53
2020-03-13 04:00:00 13.5 5 Norte 8 Norte 0 -- -- 54
2020-03-13 03:00:00 13.4 5 Norte 9 Norte 0 -- -- 56
2020-03-13 02:00:00 12.9 4 Norte 6 Nordeste 0 -- -- 60
2020-03-13 01:00:00 13 2 Norte 5 Nordeste 0 -- -- 59
2020-03-13 00:00:00 14.1 5 Norte 6 Norte 0 -- -- 52
2020-03-12 23:00:00 14.6 4 Nordeste 6 Nordeste 0 -- -- 48
2020-03-12 22:00:00 14.8 3 Nordeste 7 Nordeste 0 -- -- 50
2020-03-12 21:00:00 15.5 3 Norte 6 Oeste 0 -- -- 52
2020-03-12 20:00:00 17 3 Oeste 8 Sudoeste 0 -- -- 51
2020-03-12 19:00:00 18.6 2 Oeste 12 Oeste 0 -- -- 33
2020-03-12 18:00:00 19.3 6 Oeste 14 Sudoeste 0 -- -- 34
2020-03-12 17:00:00 19.9 6 Sudoeste 14 Sudoeste 0 -- -- 32
2020-03-12 16:00:00 20.6 6 Oeste 16 Sudoeste 0 -- -- 33
2020-03-12 15:00:00 20.3 8 Sudoeste 16 Sur 0 -- -- 40
2020-03-12 14:00:00 21.5 6 Sudoeste 17 Sudoeste 0 -- -- 26
2020-03-12 13:00:00 20.6 5 Sur 13 Sudoeste 0 -- -- 35
2020-03-12 12:00:00 19.1 5 Sur 9 Sur 0 -- -- 47
2020-03-12 11:00:00 18.5 4 Sur 8 Sudeste 0 -- -- 44
2020-03-12 10:00:00 16.3 0 Calma 4 Este 0 -- -- 75
2020-03-12 09:00:00 14 0 Calma -- -- 0 -- -- 69
2020-03-12 08:00:00 11 0 Calma -- -- 0 -- -- 87
2020-03-12 07:00:00 10.2 0 Calma -- -- 0 -- -- 92
2020-03-12 06:00:00 10.5 0 Calma -- -- 0 -- -- 91
2020-03-12 05:00:00 10.5 0 Calma 6 Norte 0 -- -- 92
2020-03-12 04:00:00 10.8 0 Calma 4 Norte 0 -- -- 92
2020-03-12 03:00:00 11.6 0 Calma 7 Nordeste 0 -- -- 94
2020-03-12 02:00:00 12.2 5 Norte 11 Norte 0 -- -- 97
2020-03-12 01:00:00 13.2 4 Norte 10 Noroeste 0 -- -- 96
2020-03-12 00:00:00 13.7 3 Norte 5 Norte 0 -- -- 92
2020-03-11 23:00:00 13.3 0 Calma 6 Norte 0 -- -- 90
2020-03-11 22:00:00 13.8 3 Norte 4 Norte 0 -- -- 90
2020-03-11 21:00:00 15 0 Calma 8 Sur 0 -- -- 91
2020-03-11 20:00:00 15.4 4 Sudoeste 10 Sudoeste 0 -- -- 92
2020-03-11 19:00:00 15.9 5 Sudoeste 16 Sur 0 -- -- 88
2020-03-11 18:00:00 16.5 9 Sur 22 Sur 0 -- -- 84
2020-03-11 17:00:00 16.9 12 Sudoeste 24 Sudoeste 0 -- -- 81
2020-03-11 16:00:00 17.6 11 Sur 19 Sudoeste 0 -- -- 79
2020-03-11 15:00:00 17.8 10 Sur 17 Sur 0 -- -- 78
2020-03-11 14:00:00 18.3 9 Sur 18 Sudoeste 0 -- -- 75
2020-03-11 13:00:00 17.6 9 Sur 16 Sur 0 -- -- 78
2020-03-11 12:00:00 17.1 9 Sur 14 Sur 0 -- -- 81
2020-03-11 11:00:00 16.8 3 Sudeste 9 Sudeste 0 -- -- 76
2020-03-11 10:00:00 16.5 0 Calma 9 Norte 0 -- -- 67
2020-03-11 09:00:00 13.6 4 Nordeste 6 Nordeste 0 -- -- 71
2020-03-11 08:00:00 11 2 Norte 6 Nordeste 0 -- -- 82
2020-03-11 07:00:00 10.1 3 Norte 6 Noroeste 0 -- -- 89
2020-03-11 06:00:00 10.4 2 Nordeste 6 Nordeste 0 -- -- 87
2020-03-11 05:00:00 10.7 2 Norte 6 Noroeste 0 -- -- 88
2020-03-11 04:00:00 11.2 4 Norte 8 Norte 0 -- -- 86
2020-03-11 03:00:00 11.7 2 Nordeste 7 Norte 0 -- -- 86
2020-03-11 02:00:00 11.9 0 Calma 7 Norte 0 -- -- 85
2020-03-11 01:00:00 12.8 3 Norte 9 Oeste 0 -- -- 84
2020-03-11 00:00:00 13.9 3 Noroeste 17 Sudoeste 0 -- -- 82
2020-03-10 23:00:00 14.5 6 Sudoeste 17 Sudoeste 0 -- -- 81
2020-03-10 22:00:00 14.6 6 Oeste 17 Sudoeste 0 -- -- 80
2020-03-10 21:00:00 14.6 6 Sudoeste 17 Sudoeste 0 -- -- 79
2020-03-10 20:00:00 14.6 4 Sudoeste 17 Sudoeste 0 -- -- 76
2020-03-10 19:00:00 14.7 8 Sudoeste 24 Oeste 0 -- -- 74
2020-03-10 18:00:00 15.3 8 Sudoeste 30 Sudoeste 0 -- -- 70
2020-03-10 17:00:00 15.6 12 Sudoeste 28 Sudoeste 0 -- -- 68
2020-03-10 16:00:00 16.1 13 Sudoeste 31 Sudoeste 0 -- -- 64
2020-03-10 15:00:00 16.9 12 Sudoeste 31 Sudoeste 0 -- -- 59
2020-03-10 14:00:00 16.5 16 Sudoeste 35 Sudoeste 0 -- -- 60
2020-03-10 13:00:00 16.5 12 Sudoeste 33 Sur 0 -- -- 55
2020-03-10 12:00:00 16.6 10 Sudoeste 26 Sudoeste 0 -- -- 58
2020-03-10 11:00:00 15.3 9 Sur 16 Sur 0 -- -- 62
2020-03-10 10:00:00 14.3 3 Este 6 Nordeste 0 -- -- 64
2020-03-10 09:00:00 12.6 0 Calma 5 Nordeste 0 -- -- 69
2020-03-10 08:00:00 11.1 4 Norte 7 Norte 0 -- -- 73
2020-03-10 07:00:00 9.8 0 Calma 6 Nordeste 0 -- -- 79
2020-03-10 06:00:00 9.9 2 Nordeste 7 Norte 0 -- -- 78
2020-03-10 05:00:00 10.8 0 Calma 8 Norte 0 -- -- 74
2020-03-10 04:00:00 10.8 3 Noroeste 8 Noroeste 0 -- -- 76
2020-03-10 03:00:00 11.5 3 Noroeste 8 Norte 0 -- -- 74
2020-03-10 02:00:00 12 4 Nordeste 12 Nordeste 0 -- -- 73
2020-03-10 01:00:00 12.1 5 Nordeste 14 Nordeste 0 -- -- 74
2020-03-10 00:00:00 11.8 6 Norte 15 Nordeste 0 -- -- 75